Latest Weather Observations for Camooweal

IDQ60801

Issued at 12:32 pm EST Saturday 10 December 2016 (issued every 30 minutes, with the page automatically refreshed every 10 minutes)

About weather observations | Map of weather stations | Latest weather observations for QLD | Other Formats
Station Details ID: 037010 Name: CAMOOWEAL TOWNSHIP Lat: -19.92 Lon: 138.12 Height: 231.2 m
Data from the previous 72 hours. | See also: Recent months at Camooweal
Date/Time
EST
Temp
°C
App
Temp
°C
Dew
Point
°C
Rel
Hum
%
Delta-T
°C
Wind Press
QNH
hPa
Press
MSL
hPa
Rain since
9am
mm
Dir  Spd
km/h
Gust
km/h
Spd
kts
Gust
kts
10/12:00pm 34.3 31.0 10.8 24 13.8 SE 19 32 10 17 1012.8 1011.0 0.0
10/11:30am 34.3 30.0 9.5 22 14.3 SSE 22 32 12 17 1013.2 1011.4 0.0
10/11:00am 34.0 29.3 9.3 22 14.2 ESE 24 33 13 18 1013.6 1011.9 0.0
10/10:30am 33.1 28.8 7.1 20 14.4 SSE 19 28 10 15 1013.6 1011.9 0.0
10/10:00am 30.9 26.2 6.0 21 13.4 SE 20 30 11 16 1013.7 1012.0 0.0
10/09:30am 30.1 24.5 3.2 18 13.7 SSE 22 30 12 16 1013.6 1011.9 0.0
10/09:00am 29.2 23.4 2.5 18 13.4 SSE 22 30 12 16 1013.6 1011.9 0.0
10/08:30am 27.7 21.8 2.0 19 12.6 SSE 22 32 12 17 1013.7 1012.0 0.0
10/08:00am 27.6 21.4 1.9 19 12.6 SSE 24 35 13 19 1013.4 1011.6 0.0
10/07:30am 27.4 21.1 1.8 19 12.5 SSE 24 35 13 19 1013.1 1011.3 0.0
10/07:00am 26.8 21.4 2.7 21 11.9 SSE 20 26 11 14 1012.9 1011.1 0.0
10/06:30am 26.3 21.1 3.5 23 11.4 SSE 20 28 11 15 1012.7 1010.9 0.0
10/06:00am 26.2 21.0 3.5 23 11.4 SSE 20 26 11 14 1012.2 1010.4 0.0
10/05:30am 26.2 21.4 4.6 25 11.0 S 19 26 10 14 1011.8 1010.0 0.0
10/05:00am 26.2 22.4 5.7 27 10.7 S 15 19 8 10 1011.5 1009.7 0.0
10/04:30am 26.2 22.5 6.3 28 10.5 S 15 17 8 9 1011.4 1009.6 0.0
10/04:00am 26.1 23.5 7.7 31 9.9 S 11 17 6 9 1011.0 1009.2 0.0
10/03:30am 25.8 23.8 8.8 34 9.3 SSW 9 13 5 7 1011.1 1009.3 0.0
10/03:00am 26.2 24.1 8.2 32 9.8 S 9 13 5 7 1011.1 1009.3 0.0
10/02:30am 25.9 24.5 8.8 34 9.4 S 6 7 3 4 1011.3 1009.5 0.0
10/02:00am 26.2 24.6 8.7 33 9.6 SSW 7 9 4 5 1011.5 1009.7 0.0
10/01:30am 26.7 24.2 8.2 31 10.1 SSE 11 13 6 7 1011.6 1009.8 0.0
10/01:00am 26.6 24.2 8.6 32 9.9 S 11 13 6 7 1012.0 1010.2 0.0
10/12:30am 27.1 24.6 8.0 30 10.4 S 11 15 6 8 1012.2 1010.4 0.0
10/12:00am 27.5 24.8 7.4 28 10.9 SSE 11 15 6 8 1012.2 1010.4 0.0
 
Date/Time
EST
Temp
°C
App
Temp
°C
Dew
Point
°C
Rel
Hum
%
Delta-T
°C
Wind Press
QNH
hPa
Press
MSL
hPa
Rain since
9am
mm
Dir  Spd
km/h
Gust
km/h
Spd
kts
Gust
kts
09/11:30pm 27.5 24.9 7.9 29 10.7 SSE 11 15 6 8 1012.2 1010.4 0.0
09/11:00pm 27.6 25.4 8.0 29 10.7 SSE 9 13 5 7 1012.4 1010.6 0.0
09/10:30pm 27.5 24.5 7.9 29 10.7 SSE 13 17 7 9 1012.2 1010.4 0.0
09/10:00pm 27.4 23.7 7.8 29 10.7 SSE 17 24 9 13 1012.2 1010.4 0.0
09/09:30pm 27.2 23.0 8.1 30 10.4 S 20 28 11 15 1012.3 1010.5 0.0
09/09:00pm 27.7 22.9 7.5 28 10.9 S 22 30 12 16 1012.2 1010.4 0.0
09/08:30pm 27.8 22.6 7.1 27 11.1 S 24 32 13 17 1012.4 1010.6 0.0
09/08:00pm 27.9 22.5 8.2 29 10.8 S 26 35 14 19 1012.3 1010.5 0.0
09/07:30pm 28.4 22.9 7.6 27 11.3 S 26 35 14 19 1012.0 1010.2 0.0
09/07:00pm 28.8 23.0 7.9 27 11.5 S 28 37 15 20 1011.9 1010.1 0.0
09/06:30pm 29.9 24.1 7.8 25 12.2 S 28 35 15 19 1011.5 1009.7 0.0
09/06:00pm 30.7 23.9 7.8 24 12.7 S 33 44 18 24 1011.0 1009.2 0.0
09/05:30pm 31.5 24.9 7.9 23 13.1 S 32 43 17 23 1010.5 1008.8 0.0
09/05:00pm 32.9 27.3 10.3 25 13.1 S 30 37 16 20 1010.2 1008.5 0.0
09/04:30pm 33.6 27.6 10.2 24 13.6 S 32 39 17 21 1010.0 1008.3 0.0
09/04:00pm 34.4 29.6 11.5 25 13.7 S 28 37 15 20 1009.9 1008.2 0.0
09/03:30pm 35.1 31.8 12.7 26 13.6 SSE 22 33 12 18 1009.9 1008.2 0.0
09/03:00pm 34.2 31.2 12.5 27 13.1 SSE 20 28 11 15 1010.1 1008.4 0.0
09/02:30pm 34.4 31.8 13.3 28 12.9 SE 19 28 10 15 1010.4 1008.7 0.0
09/02:00pm 34.3 32.1 13.2 28 12.9 S 17 24 9 13 1011.0 1009.2 0.0
09/01:30pm 34.7 32.4 14.0 28 12.8 SSW 19 30 10 16 1011.3 1009.5 0.0
09/01:00pm 33.2 30.2 13.8 31 11.9 SSE 22 30 12 16 1011.6 1009.8 0.0
09/12:30pm 33.0 30.7 14.1 32 11.6 S 19 32 10 17 1012.2 1010.4 0.0
09/12:00pm 32.3 30.8 15.3 35 10.6 SSE 17 26 9 14 1012.7 1010.9 0.0
09/11:30am 30.7 29.9 17.0 43 8.7 S 17 22 9 12 1013.0 1011.2 0.0
09/11:00am 30.7 29.5 17.4 45 8.5 SSE 20 28 11 15 1013.2 1011.4 0.0
09/10:30am 30.6 29.9 18.3 47 8.0 SSE 19 24 10 13 1013.4 1011.6 0.0
09/10:00am 28.0 27.2 18.1 55 6.4 SSE 19 26 10 14 1013.7 1012.0 0.0
09/09:30am 27.5 27.1 18.8 59 5.6 S 19 28 10 15 1013.9 1012.2 0.0
09/09:00am 26.9 25.9 17.9 57 5.7 SSE 20 28 11 15 1014.0 1012.3 0.0
09/08:30am 26.7 25.7 18.0 59 5.6 SE 20 30 11 16 1013.8 1012.1 0.0
09/08:00am 26.1 23.8 17.7 60 5.3 SSE 26 33 14 18 1013.9 1012.2 0.0
09/07:30am 26.1 24.0 18.0 61 5.2 SSE 26 33 14 18 1013.6 1011.9 0.0
09/07:00am 25.9 24.8 17.8 61 5.1 SSE 20 32 11 17 1013.5 1011.8 0.0
09/06:30am 25.7 24.2 17.6 61 5.1 SSE 22 30 12 16 1013.3 1011.5 0.0
09/06:00am 25.6 23.8 17.8 62 4.9 S 24 35 13 19 1012.9 1011.1 0.0
09/05:30am 25.8 23.9 17.7 61 5.1 S 24 35 13 19 1012.4 1010.6 0.0
09/05:00am 26.4 23.7 17.5 58 5.6 S 28 37 15 20 1011.8 1010.0 0.0
09/04:30am 26.7 24.9 17.8 58 5.7 S 24 33 13 18 1011.5 1009.7 0.0
09/04:00am 27.0 25.5 17.8 57 5.9 S 22 32 12 17 1011.4 1009.6 0.0
09/03:30am 27.5 25.8 17.1 53 6.6 S 22 32 12 17 1011.1 1009.3 0.0
09/03:00am 27.8 25.6 17.0 51 6.8 S 24 32 13 17 1010.7 1008.9 0.0
09/02:30am 28.2 26.7 16.8 50 7.2 SSE 20 33 11 18 1010.7 1008.9 0.0
09/02:00am 28.3 26.1 16.9 50 7.2 SSE 24 33 13 18 1010.4 1008.7 0.0
09/01:30am 28.4 25.7 16.7 49 7.4 SSE 26 37 14 20 1010.4 1008.7 0.0
09/01:00am 28.8 25.8 16.7 48 7.6 SSE 28 41 15 22 1010.4 1008.7 0.0
09/12:38am 29.0 26.0 16.9 48 7.7 SSE 28 46 15 25 1010.3 1008.6 0.0
09/12:30am 29.1 26.2 17.0 48 7.7 SSE 28 35 15 19 1010.4 1008.7 0.0
09/12:00am 29.4 25.5 16.9 47 7.9 SSE 33 46 18 25 1010.7 1008.9 0.0
 
Date/Time
EST
Temp
°C
App
Temp
°C
Dew
Point
°C
Rel
Hum
%
Delta-T
°C
Wind Press
QNH
hPa
Press
MSL
hPa
Rain since
9am
mm
Dir  Spd
km/h
Gust
km/h
Spd
kts
Gust
kts
08/11:30pm 29.9 25.5 16.7 45 8.4 SSE 35 56 19 30 1010.7 1008.9 0.0
08/11:07pm 30.4 25.7 16.8 44 8.6 SSE 37 56 20 30 1010.8 1009.0 0.0
08/11:00pm 30.5 25.6 17.2 44 8.5 SSE 39 56 21 30 1010.5 1008.8 0.0
08/10:54pm 30.5 26.3 17.2 44 8.5 SSE 35 56 19 30 1010.5 1008.8 0.0
08/10:30pm 30.9 27.2 18.3 47 8.2 S 35 50 19 27 1010.4 1008.7 0.0
08/10:27pm 31.0 27.0 18.4 47 8.2 S 37 56 20 30 1010.3 1008.6 0.0
08/10:00pm 31.7 27.0 18.7 46 8.5 S 41 57 22 31 1009.9 1008.2 0.0
08/09:51pm 31.8 28.5 18.4 45 8.7 S 33 52 18 28 1009.8 1008.1 0.0
08/09:30pm 32.3 28.9 18.1 42 9.2 S 33 44 18 24 1009.5 1007.8 0.0
08/09:00pm 33.2 31.7 17.8 40 10.0 S 22 28 12 15 1009.1 1007.3 0.0
08/08:30pm 33.3 33.6 17.9 40 10.0 SSE 13 22 7 12 1009.1 1007.3 0.0
08/08:00pm 33.6 32.5 17.3 37 10.5 SSE 19 30 10 16 1008.9 1007.1 0.0
08/07:30pm 33.8 32.6 17.5 38 10.6 S 20 30 11 16 1007.9 1006.1 0.0
08/07:00pm 33.9 32.0 16.7 35 11.0 S 22 35 12 19 1007.4 1005.6 0.0
08/06:30pm 33.2 29.5 17.0 38 10.4 S 32 43 17 23 1006.3 1004.5 0.0
08/06:08pm 34.1 29.8 16.9 36 11.1 S 35 54 19 29 1005.9 1004.2 0.0
08/06:00pm 34.6 30.7 16.9 35 11.4 S 33 48 18 26 1005.9 1004.2 0.0
08/05:40pm 35.7 32.3 15.9 30 12.6 SSW 28 44 15 24 1005.4 1003.6 0.0
08/05:30pm 38.4 35.5 12.9 22 15.7 SSW 20 28 11 15 1005.0 1003.2 0.0
08/05:00pm 37.8 34.1 15.0 26 14.5 SW 28 39 15 21 1004.8 1003.0 0.0
08/04:30pm 39.6 34.5 13.2 21 16.4 SSW 32 41 17 22 1004.7 1002.9 0.0
08/04:00pm 39.7 35.7 14.0 22 16.2 SSW 28 39 15 21 1004.9 1003.1 0.0
08/03:30pm 42.0 41.5 12.8 18 18.2 N 7 13 4 7 1005.1 1003.3 0.0
08/03:00pm 40.9 40.4 11.9 18 17.8 N 6 13 3 7 1005.3 1003.5 0.0
08/02:30pm 40.9 39.4 11.9 18 17.8 NNE 11 19 6 10 1005.7 1004.0 0.0
08/02:00pm 40.6 40.2 14.0 21 16.8 N 9 20 5 11 1006.2 1004.4 0.0
08/01:30pm 39.7 38.9 14.0 22 16.2 WNW 11 19 6 10 1006.8 1005.0 0.0
08/01:00pm 38.7 38.4 14.5 24 15.3 WNW 9 15 5 8 1007.4 1005.6 0.0
08/12:30pm 38.8 38.6 15.8 25 14.8 NW 11 19 6 10 1008.0 1006.2 0.0
08/12:00pm 37.7 37.0 15.5 27 14.2 N 13 24 7 13 1008.4 1006.6 0.0
08/11:30am 37.2 36.4 16.2 29 13.5 N 15 28 8 15 1008.8 1007.0 0.0
08/11:00am 36.6 35.8 16.2 29 13.1 N 15 24 8 13 1009.2 1007.4 0.0
08/10:30am 36.4 35.9 17.0 31 12.6 N 15 24 8 13 1009.6 1007.9 0.0
08/10:00am 35.2 35.1 17.9 36 11.3 NNW 15 26 8 14 1009.6 1007.9 0.0
08/09:30am 34.8 35.7 19.2 39 10.4 NW 13 22 7 12 1010.0 1008.3 0.0
08/09:00am 33.8 33.6 19.8 43 9.4 NNW 20 33 11 18 1009.7 1008.0 0.0
08/08:30am 32.4 32.2 20.6 49 7.9 NNW 22 30 12 16 1009.7 1008.0 0.0
08/08:00am 31.2 32.0 21.4 56 6.7 NNW 19 28 10 15 1009.7 1008.0 0.0
08/07:30am 31.1 32.5 21.0 55 6.8 NNW 15 20 8 11 1009.4 1007.6 0.0
08/07:00am 30.4 31.3 20.9 57 6.4 NNW 17 24 9 13 1009.0 1007.2 0.0
08/06:30am 30.2 31.0 20.7 56 6.4 NNW 17 22 9 12 1008.6 1006.8 0.0
08/06:00am 30.2 31.4 19.9 54 6.8 N 13 20 7 11 1008.4 1006.6 0.0
08/05:30am 30.4 31.6 20.0 53 6.9 NNW 13 17 7 9 1008.0 1006.2 0.0
08/05:00am 30.9 32.7 19.6 51 7.5 N 9 15 5 8 1007.4 1005.6 0.0
08/04:30am 31.5 32.8 18.5 46 8.5 N 9 13 5 7 1007.1 1005.3 0.0
08/04:00am 32.1 32.2 16.4 39 10.0 N 11 15 6 8 1006.8 1005.0 0.0
08/03:30am 32.4 31.7 15.4 36 10.6 N 13 19 7 10 1006.9 1005.1 0.0
08/03:00am 32.3 31.1 14.0 33 11.2 N 13 15 7 8 1006.9 1005.1 0.0
08/02:30am 32.2 31.0 12.9 31 11.6 N 11 15 6 8 1006.8 1005.0 0.0
08/02:00am 33.1 32.0 13.2 30 12.1 NNE 11 15 6 8 1006.9 1005.1 0.0
08/01:30am 34.3 33.6 13.2 28 12.9 N 9 13 5 7 1007.0 1005.2 0.0
08/01:00am 35.2 34.2 13.4 27 13.4 N 11 17 6 9 1007.0 1005.2 0.0
08/12:30am 36.4 35.9 13.8 26 14.0 NW 9 13 5 7 1007.2 1005.4 0.0
08/12:00am 36.0 35.4 14.6 27 13.4 NNE 11 20 6 11 1007.7 1005.9 0.0
 
Date/Time
EST
Temp
°C
App
Temp
°C
Dew
Point
°C
Rel
Hum
%
Delta-T
°C
Wind Press
QNH
hPa
Press
MSL
hPa
Rain since
9am
mm
Dir  Spd
km/h
Gust
km/h
Spd
kts
Gust
kts
07/11:30pm 36.9 34.8 13.6 24 14.4 NE 17 33 9 18 1007.9 1006.1 0.0
07/11:00pm 36.4 37.0 13.2 25 14.3 SW 2 7 1 4 1007.9 1006.1 0.0
07/10:30pm 35.2 34.9 12.8 26 13.6 NE 6 13 3 7 1007.8 1006.0 0.0
07/10:00pm 36.4 35.5 12.6 24 14.5 NNE 9 17 5 9 1007.3 1005.5 0.0
07/09:30pm 37.0 35.7 12.4 23 15.0 SE 11 13 6 7 1006.9 1005.1 0.0
07/09:00pm 36.8 34.1 12.9 24 14.7 SE 19 30 10 16 1006.8 1005.0 0.0
07/08:30pm 37.0 33.4 13.1 24 14.7 SE 24 39 13 21 1006.6 1004.8 0.0
07/08:00pm 36.9 35.5 11.0 21 15.5 SE 9 11 5 6 1006.2 1004.4 0.0
07/07:30pm 38.3 36.8 10.6 19 16.5 ESE 9 11 5 6 1005.9 1004.2 0.0
07/07:00pm 40.4 39.2 9.7 16 18.3 NE 6 11 3 6 1005.7 1004.0 0.0
07/06:30pm 40.8 39.5 10.0 16 18.4 NNE 7 11 4 6 1005.5 1003.7 0.0
07/06:00pm 41.2 39.4 9.4 15 18.9 NE 9 15 5 8 1005.4 1003.6 0.0
07/05:30pm 42.0 40.9 10.0 15 19.2 SSE 6 13 3 7 1005.2 1003.4 0.0
07/05:00pm 41.7 40.3 10.8 16 18.8 ENE 9 13 5 7 1005.2 1003.4 0.0
07/04:30pm 42.0 39.1 11.0 16 18.9 S 17 26 9 14 1005.2 1003.4 0.0
07/04:00pm 41.5 38.5 10.6 16 18.7 SSE 17 26 9 14 1005.7 1004.0 0.0
07/03:30pm 42.2 39.1 12.1 17 18.6 S 20 30 11 16 1005.8 1004.1 0.0
07/03:00pm 41.4 40.4 12.3 18 18.0 SSW 9 17 5 9 1006.4 1004.6 0.0
07/02:30pm 40.9 38.8 13.5 20 17.2 S 17 30 9 16 1006.7 1004.9 0.0
07/02:00pm 40.0 40.0 14.2 21 16.3 SSE 7 13 4 7 1007.3 1005.5 0.0
07/01:30pm 39.7 37.9 13.3 21 16.5 SSE 15 22 8 12 1007.7 1005.9 0.0
07/01:00pm 40.4 39.4 14.6 22 16.4 SSW 13 24 7 13 1008.2 1006.4 0.0

Other Formats:

Comma delimited format used in spreadsheet applications
http://www.bom.gov.au/fwo/IDQ60801/IDQ60801.94255.axf

JavaScript Object Notation format (JSON) in row-major order
http://www.bom.gov.au/fwo/IDQ60801/IDQ60801.94255.json